sensor_id;sensor_type;location;lat;lon;timestamp;pressure;altitude;pressure_sealevel;temperature;humidity
48267;BME280;34088;52.232;5.196;2023-12-20T00:00:56;101608.69;;;6.94;100.00
48267;BME280;34088;52.232;5.196;2023-12-20T00:03:21;101610.41;;;6.92;100.00
48267;BME280;34088;52.232;5.196;2023-12-20T00:05:47;101616.41;;;6.94;100.00
48267;BME280;34088;52.232;5.196;2023-12-20T00:08:13;101614.72;;;6.88;100.00
48267;BME280;34088;52.232;5.196;2023-12-20T00:10:38;101618.97;;;6.92;100.00
48267;BME280;34088;52.232;5.196;2023-12-20T00:13:03;101613.00;;;6.90;100.00
48267;BME280;34088;52.232;5.196;2023-12-20T00:15:28;101611.31;;;6.88;100.00
48267;BME280;34088;52.232;5.196;2023-12-20T00:17:54;101601.00;;;6.83;99.92
48267;BME280;34088;52.232;5.196;2023-12-20T00:32:48;101610.66;;;6.59;100.00
48267;BME280;34088;52.232;5.196;2023-12-20T00:35:14;101605.50;;;6.56;100.00
48267;BME280;34088;52.232;5.196;2023-12-20T00:37:39;101611.50;;;6.56;100.00
48267;BME280;34088;52.232;5.196;2023-12-20T00:40:06;101605.50;;;6.56;100.00
48267;BME280;34088;52.232;5.196;2023-12-20T00:42:32;101594.38;;;6.52;100.00
48267;BME280;34088;52.232;5.196;2023-12-20T00:44:58;101596.94;;;6.54;100.00
48267;BME280;34088;52.232;5.196;2023-12-20T00:47:24;101597.81;;;6.53;100.00
48267;BME280;34088;52.232;5.196;2023-12-20T00:49:49;101601.22;;;6.55;100.00
48267;BME280;34088;52.232;5.196;2023-12-20T00:52:14;101608.94;;;6.55;100.00
48267;BME280;34088;52.232;5.196;2023-12-20T00:54:39;101596.94;;;6.54;100.00
48267;BME280;34088;52.232;5.196;2023-12-20T00:57:05;101592.63;;;6.54;100.00
48267;BME280;34088;52.232;5.196;2023-12-20T00:59:30;101587.50;;;6.57;100.00
48267;BME280;34088;52.232;5.196;2023-12-20T01:01:55;101586.66;;;6.55;100.00
48267;BME280;34088;52.232;5.196;2023-12-20T01:04:21;101571.22;;;6.54;100.00
48267;BME280;34088;52.232;5.196;2023-12-20T01:06:46;101589.19;;;6.58;100.00
48267;BME280;34088;52.232;5.196;2023-12-20T01:09:11;101591.81;;;6.54;100.00
48267;BME280;34088;52.232;5.196;2023-12-20T01:11:37;101596.91;;;6.57;100.00
48267;BME280;34088;52.232;5.196;2023-12-20T01:14:02;101603.84;;;6.52;100.00
48267;BME280;34088;52.232;5.196;2023-12-20T01:16:27;101601.19;;;6.61;100.00
48267;BME280;34088;52.232;5.196;2023-12-20T01:18:52;101603.75;;;6.64;100.00
48267;BME280;34088;52.232;5.196;2023-12-20T01:21:18;101603.72;;;6.70;100.00
48267;BME280;34088;52.232;5.196;2023-12-20T01:23:43;101597.75;;;6.66;100.00
48267;BME280;34088;52.232;5.196;2023-12-20T01:26:08;101599.44;;;6.66;100.00
48267;BME280;34088;52.232;5.196;2023-12-20T01:28:34;101595.97;;;6.73;100.00
48267;BME280;34088;52.232;5.196;2023-12-20T01:30:59;101591.69;;;6.72;100.00
48267;BME280;34088;52.232;5.196;2023-12-20T01:33:24;101595.13;;;6.71;100.00
48267;BME280;34088;52.232;5.196;2023-12-20T01:35:50;101590.81;;;6.71;100.00
48267;BME280;34088;52.232;5.196;2023-12-20T01:38:15;101595.97;;;6.71;100.00
48267;BME280;34088;52.232;5.196;2023-12-20T01:40:43;101597.66;;;6.75;100.00
48267;BME280;34088;52.232;5.196;2023-12-20T01:43:09;101594.16;;;6.82;100.00
48267;BME280;34088;52.232;5.196;2023-12-20T01:45:35;101589.91;;;6.81;100.00
48267;BME280;34088;52.232;5.196;2023-12-20T01:48:00;101592.41;;;6.86;100.00
48267;BME280;34088;52.232;5.196;2023-12-20T01:50:28;101585.56;;;6.83;100.00
48267;BME280;34088;52.232;5.196;2023-12-20T01:52:55;101592.47;;;6.83;100.00
48267;BME280;34088;52.232;5.196;2023-12-20T01:55:23;101588.16;;;6.86;100.00
48267;BME280;34088;52.232;5.196;2023-12-20T01:57:48;101582.13;;;6.90;100.00
48267;BME280;34088;52.232;5.196;2023-12-20T02:00:14;101579.50;;;6.92;100.00
48267;BME280;34088;52.232;5.196;2023-12-20T02:02:40;101582.91;;;6.97;100.00
48267;BME280;34088;52.232;5.196;2023-12-20T02:05:06;101586.34;;;6.96;100.00
48267;BME280;34088;52.232;5.196;2023-12-20T02:07:31;101588.03;;;6.98;100.00
48267;BME280;34088;52.232;5.196;2023-12-20T02:09:57;101590.66;;;6.94;100.00
48267;BME280;34088;52.232;5.196;2023-12-20T02:12:22;101588.06;;;6.97;100.00
48267;BME280;34088;52.232;5.196;2023-12-20T02:14:48;101589.78;;;6.96;100.00
48267;BME280;34088;52.232;5.196;2023-12-20T02:17:14;101594.06;;;6.99;100.00
48267;BME280;34088;52.232;5.196;2023-12-20T02:19:39;101578.63;;;6.99;100.00
48267;BME280;34088;52.232;5.196;2023-12-20T02:22:11;101573.44;;;7.00;100.00
48267;BME280;34088;52.232;5.196;2023-12-20T02:24:37;101571.72;;;7.04;99.58
48267;BME280;34088;52.232;5.196;2023-12-20T02:27:03;101567.44;;;7.00;100.00
48267;BME280;34088;52.232;5.196;2023-12-20T02:29:30;101576.81;;;7.08;99.63
48267;BME280;34088;52.232;5.196;2023-12-20T02:31:56;101569.94;;;7.09;99.72
48267;BME280;34088;52.232;5.196;2023-12-20T02:34:21;101563.94;;;7.07;99.89
48267;BME280;34088;52.232;5.196;2023-12-20T02:36:46;101565.66;;;7.08;99.35
48267;BME280;34088;52.232;5.196;2023-12-20T02:39:11;101565.63;;;7.11;99.87
48267;BME280;34088;52.232;5.196;2023-12-20T02:41:37;101569.03;;;7.13;99.00
48267;BME280;34088;52.232;5.196;2023-12-20T02:44:03;101567.34;;;7.13;99.12
48267;BME280;34088;52.232;5.196;2023-12-20T02:46:28;101563.91;;;7.13;98.65
48267;BME280;34088;52.232;5.196;2023-12-20T02:48:53;101572.44;;;7.15;98.50
48267;BME280;34088;52.232;5.196;2023-12-20T02:51:19;101558.75;;;7.13;98.25
48267;BME280;34088;52.232;5.196;2023-12-20T02:53:44;101555.28;;;7.15;98.18
48267;BME280;34088;52.232;5.196;2023-12-20T02:56:09;101549.31;;;7.13;98.32
48267;BME280;34088;52.232;5.196;2023-12-20T02:58:35;101541.59;;;7.12;97.75
48267;BME280;34088;52.232;5.196;2023-12-20T03:01:00;101537.31;;;7.09;97.54
48267;BME280;34088;52.232;5.196;2023-12-20T03:03:25;101537.31;;;7.11;98.43
48267;BME280;34088;52.232;5.196;2023-12-20T03:05:51;101526.97;;;7.12;97.66
48267;BME280;34088;52.232;5.196;2023-12-20T03:08:17;101533.91;;;7.07;97.81
48267;BME280;34088;52.232;5.196;2023-12-20T03:10:42;101538.16;;;7.13;97.83
48267;BME280;34088;52.232;5.196;2023-12-20T03:13:07;101532.13;;;7.12;97.88
48267;BME280;34088;52.232;5.196;2023-12-20T03:15:32;101533.88;;;7.12;97.47
48267;BME280;34088;52.232;5.196;2023-12-20T03:17:58;101529.56;;;7.14;97.80
48267;BME280;34088;52.232;5.196;2023-12-20T03:20:24;101526.16;;;7.12;97.62
48267;BME280;34088;52.232;5.196;2023-12-20T03:22:51;101522.69;;;7.16;97.52
48267;BME280;34088;52.232;5.196;2023-12-20T03:25:16;101526.09;;;7.19;97.41
48267;BME280;34088;52.232;5.196;2023-12-20T03:27:41;101525.22;;;7.20;97.08
48267;BME280;34088;52.232;5.196;2023-12-20T03:30:07;101532.94;;;7.19;97.04
48267;BME280;34088;52.232;5.196;2023-12-20T03:32:33;101520.88;;;7.21;97.10
48267;BME280;34088;52.232;5.196;2023-12-20T03:34:58;101526.03;;;7.21;97.37
48267;BME280;34088;52.232;5.196;2023-12-20T03:37:23;101534.69;;;7.17;96.47
48267;BME280;34088;52.232;5.196;2023-12-20T03:39:48;101532.97;;;7.16;96.43
48267;BME280;34088;52.232;5.196;2023-12-20T03:42:14;101531.28;;;7.13;97.13
48267;BME280;34088;52.232;5.196;2023-12-20T03:44:39;101534.69;;;7.15;96.77
48267;BME280;34088;52.232;5.196;2023-12-20T03:47:05;101538.97;;;7.18;96.00
48267;BME280;34088;52.232;5.196;2023-12-20T03:49:30;101538.09;;;7.19;96.38
48267;BME280;34088;52.232;5.196;2023-12-20T03:51:56;101548.38;;;7.19;96.44
48267;BME280;34088;52.232;5.196;2023-12-20T03:54:21;101551.81;;;7.19;96.27
48267;BME280;34088;52.232;5.196;2023-12-20T03:56:46;101553.53;;;7.19;96.75
48267;BME280;34088;52.232;5.196;2023-12-20T03:59:11;101545.75;;;7.23;96.22
48267;BME280;34088;52.232;5.196;2023-12-20T04:01:37;101541.53;;;7.18;96.78
48267;BME280;34088;52.232;5.196;2023-12-20T04:04:02;101544.91;;;7.24;96.65
48267;BME280;34088;52.232;5.196;2023-12-20T04:06:28;101544.91;;;7.24;96.30
48267;BME280;34088;52.232;5.196;2023-12-20T04:08:53;101536.31;;;7.24;95.97
48267;BME280;34088;52.232;5.196;2023-12-20T04:11:18;101535.44;;;7.25;96.48
48267;BME280;34088;52.232;5.196;2023-12-20T04:13:43;101525.16;;;7.25;95.71
48267;BME280;34088;52.232;5.196;2023-12-20T04:16:09;101525.97;;;7.27;95.14
48267;BME280;34088;52.232;5.196;2023-12-20T04:18:34;101531.13;;;7.30;95.44
48267;BME280;34088;52.232;5.196;2023-12-20T04:20:59;101536.22;;;7.33;94.98
48267;BME280;34088;52.232;5.196;2023-12-20T04:23:25;101523.31;;;7.36;95.35
48267;BME280;34088;52.232;5.196;2023-12-20T04:25:50;101523.31;;;7.36;95.04
48267;BME280;34088;52.232;5.196;2023-12-20T04:28:15;101511.28;;;7.38;94.85
48267;BME280;34088;52.232;5.196;2023-12-20T04:30:41;101513.84;;;7.39;94.99
48267;BME280;34088;52.232;5.196;2023-12-20T04:33:07;101519.00;;;7.38;95.54
48267;BME280;34088;52.232;5.196;2023-12-20T04:35:32;101519.00;;;7.38;95.42
48267;BME280;34088;52.232;5.196;2023-12-20T04:37:57;101524.16;;;7.38;95.34
48267;BME280;34088;52.232;5.196;2023-12-20T04:40:23;101513.81;;;7.41;95.30
48267;BME280;34088;52.232;5.196;2023-12-20T04:42:48;101517.25;;;7.41;95.43
48267;BME280;34088;52.232;5.196;2023-12-20T04:45:13;101528.38;;;7.45;95.27
48267;BME280;34088;52.232;5.196;2023-12-20T04:47:41;101518.94;;;7.44;95.11
48267;BME280;34088;52.232;5.196;2023-12-20T04:50:07;101518.91;;;7.47;94.69
48267;BME280;34088;52.232;5.196;2023-12-20T04:52:32;101505.16;;;7.48;94.71
48267;BME280;34088;52.232;5.196;2023-12-20T04:54:58;101511.13;;;7.53;94.99
48267;BME280;34088;52.232;5.196;2023-12-20T04:57:24;101507.72;;;7.49;94.28
48267;BME280;34088;52.232;5.196;2023-12-20T04:59:49;101507.78;;;7.45;93.77
48267;BME280;34088;52.232;5.196;2023-12-20T05:02:15;101500.81;;;7.51;94.27
48267;BME280;34088;52.232;5.196;2023-12-20T05:04:40;101507.72;;;7.48;94.19
48267;BME280;34088;52.232;5.196;2023-12-20T05:07:06;101505.16;;;7.48;93.71
48267;BME280;34088;52.232;5.196;2023-12-20T05:09:32;101512.88;;;7.48;93.73
48267;BME280;34088;52.232;5.196;2023-12-20T05:11:57;101512.00;;;7.49;94.68
48267;BME280;34088;52.232;5.196;2023-12-20T05:14:22;101513.72;;;7.50;94.35
48267;BME280;34088;52.232;5.196;2023-12-20T05:16:47;101512.88;;;7.48;94.17
48267;BME280;34088;52.232;5.196;2023-12-20T05:19:13;101524.88;;;7.52;94.45
48267;BME280;34088;52.232;5.196;2023-12-20T05:21:39;101518.84;;;7.53;95.21
48267;BME280;34088;52.232;5.196;2023-12-20T05:24:04;101518.84;;;7.54;94.61
48267;BME280;34088;52.232;5.196;2023-12-20T05:26:30;101513.63;;;7.56;94.66
48267;BME280;34088;52.232;5.196;2023-12-20T05:28:55;101515.44;;;7.51;94.34
48267;BME280;34088;52.232;5.196;2023-12-20T05:31:20;101507.72;;;7.51;94.51
48267;BME280;34088;52.232;5.196;2023-12-20T05:33:46;101503.38;;;7.54;94.22
48267;BME280;34088;52.232;5.196;2023-12-20T05:36:11;101501.63;;;7.55;94.65
48267;BME280;34088;52.232;5.196;2023-12-20T05:38:38;101499.09;;;7.52;94.29
48267;BME280;34088;52.232;5.196;2023-12-20T05:41:04;101498.28;;;7.48;94.42
48267;BME280;34088;52.232;5.196;2023-12-20T05:43:29;101493.09;;;7.50;94.84
48267;BME280;34088;52.232;5.196;2023-12-20T05:45:54;101496.56;;;7.49;94.36
48267;BME280;34088;52.232;5.196;2023-12-20T05:48:19;101498.22;;;7.53;94.28
48267;BME280;34088;52.232;5.196;2023-12-20T05:50:45;101499.94;;;7.54;94.11
48267;BME280;34088;52.232;5.196;2023-12-20T05:53:10;101505.97;;;7.53;94.92
48267;BME280;34088;52.232;5.196;2023-12-20T05:55:35;101505.06;;;7.57;94.66
48267;BME280;34088;52.232;5.196;2023-12-20T05:58:01;101505.09;;;7.54;94.67
48267;BME280;34088;52.232;5.196;2023-12-20T06:00:26;101503.34;;;7.56;94.13
48267;BME280;34088;52.232;5.196;2023-12-20T06:02:51;101511.88;;;7.61;94.47
48267;BME280;34088;52.232;5.196;2023-12-20T06:05:16;101501.59;;;7.59;94.09
48267;BME280;34088;52.232;5.196;2023-12-20T06:07:42;101492.13;;;7.58;94.27
48267;BME280;34088;52.232;5.196;2023-12-20T06:10:07;101498.97;;;7.64;93.27
48267;BME280;34088;52.232;5.196;2023-12-20T06:12:33;101502.41;;;7.63;94.31
48267;BME280;34088;52.232;5.196;2023-12-20T06:15:00;101499.78;;;7.66;93.95
48267;BME280;34088;52.232;5.196;2023-12-20T06:17:26;101489.47;;;7.66;93.79
48267;BME280;34088;52.232;5.196;2023-12-20T06:19:51;101488.59;;;7.67;93.99
48267;BME280;34088;52.232;5.196;2023-12-20T06:22:16;101488.56;;;7.70;94.53
48267;BME280;34088;52.232;5.196;2023-12-20T06:24:42;101484.25;;;7.72;94.20
48267;BME280;34088;52.232;5.196;2023-12-20T06:27:07;101472.31;;;7.65;94.38
48267;BME280;34088;52.232;5.196;2023-12-20T06:29:32;101489.38;;;7.75;93.58
48267;BME280;34088;52.232;5.196;2023-12-20T06:31:59;101491.94;;;7.75;94.11
48267;BME280;34088;52.232;5.196;2023-12-20T06:34:25;101497.13;;;7.73;94.04
48267;BME280;34088;52.232;5.196;2023-12-20T06:36:50;101482.59;;;7.66;93.84
48267;BME280;34088;52.232;5.196;2023-12-20T06:39:15;101492.78;;;7.77;93.76
48267;BME280;34088;52.232;5.196;2023-12-20T06:41:41;101492.78;;;7.77;93.08
48267;BME280;34088;52.232;5.196;2023-12-20T06:44:07;101498.78;;;7.77;93.68
48267;BME280;34088;52.232;5.196;2023-12-20T06:46:33;101473.06;;;7.73;93.76
48267;BME280;34088;52.232;5.196;2023-12-20T06:48:58;101476.44;;;7.78;93.59
48267;BME280;34088;52.232;5.196;2023-12-20T06:51:23;101483.28;;;7.80;93.18
48267;BME280;34088;52.232;5.196;2023-12-20T06:53:53;101471.22;;;7.82;93.43
48267;BME280;34088;52.232;5.196;2023-12-20T06:56:18;101478.09;;;7.83;93.24
48267;BME280;34088;52.232;5.196;2023-12-20T06:58:44;101471.28;;;7.78;93.53
48267;BME280;34088;52.232;5.196;2023-12-20T07:01:13;101478.13;;;7.80;94.42
48267;BME280;34088;52.232;5.196;2023-12-20T07:03:38;101482.41;;;7.81;93.78
48267;BME280;34088;52.232;5.196;2023-12-20T07:06:04;101483.19;;;7.86;93.71
48267;BME280;34088;52.232;5.196;2023-12-20T07:08:30;101478.91;;;7.85;93.54
48267;BME280;34088;52.232;5.196;2023-12-20T07:10:55;101478.09;;;7.82;94.08
48267;BME280;34088;52.232;5.196;2023-12-20T07:13:21;101484.00;;;7.90;94.18
48267;BME280;34088;52.232;5.196;2023-12-20T07:15:48;101475.47;;;7.86;93.42
48267;BME280;34088;52.232;5.196;2023-12-20T07:18:13;101468.59;;;7.87;93.67
48267;BME280;34088;52.232;5.196;2023-12-20T07:20:38;101461.69;;;7.87;93.43
48267;BME280;34088;52.232;5.196;2023-12-20T07:23:04;101459.09;;;7.89;93.75
48267;BME280;34088;52.232;5.196;2023-12-20T07:25:29;101461.66;;;7.92;93.43
48267;BME280;34088;52.232;5.196;2023-12-20T07:27:57;101459.97;;;7.89;94.32
48267;BME280;34088;52.232;5.196;2023-12-20T07:30:22;101453.13;;;7.85;94.35
48267;BME280;34088;52.232;5.196;2023-12-20T07:32:47;101447.91;;;7.91;94.12
48267;BME280;34088;52.232;5.196;2023-12-20T07:35:13;101448.00;;;7.84;94.17
48267;BME280;34088;52.232;5.196;2023-12-20T07:37:38;101448.00;;;7.85;93.85
48267;BME280;34088;52.232;5.196;2023-12-20T07:40:04;101463.38;;;7.91;93.93
48267;BME280;34088;52.232;5.196;2023-12-20T07:42:29;101463.38;;;7.90;94.05
48267;BME280;34088;52.232;5.196;2023-12-20T07:44:55;101471.97;;;7.92;93.74
48267;BME280;34088;52.232;5.196;2023-12-20T07:47:20;101466.00;;;7.87;93.78
48267;BME280;34088;52.232;5.196;2023-12-20T07:49:47;101475.38;;;7.92;93.55
48267;BME280;34088;52.232;5.196;2023-12-20T07:52:12;101478.72;;;7.99;93.32
48267;BME280;34088;52.232;5.196;2023-12-20T07:54:38;101477.06;;;7.95;94.15
48267;BME280;34088;52.232;5.196;2023-12-20T07:57:03;101475.38;;;7.94;93.48
48267;BME280;34088;52.232;5.196;2023-12-20T07:59:28;101482.13;;;8.01;93.16
48267;BME280;34088;52.232;5.196;2023-12-20T08:01:53;101488.16;;;8.00;94.47
48267;BME280;34088;52.232;5.196;2023-12-20T08:04:19;101487.28;;;8.01;93.44
48267;BME280;34088;52.232;5.196;2023-12-20T08:06:44;101502.72;;;8.04;94.02
48267;BME280;34088;52.232;5.196;2023-12-20T08:09:09;101502.72;;;8.04;92.76
48267;BME280;34088;52.232;5.196;2023-12-20T08:11:35;101492.41;;;8.04;93.04
48267;BME280;34088;52.232;5.196;2023-12-20T08:14:00;101496.69;;;8.06;93.55
48267;BME280;34088;52.232;5.196;2023-12-20T08:16:26;101491.53;;;8.06;93.29
48267;BME280;34088;52.232;5.196;2023-12-20T08:18:51;101489.78;;;8.08;93.04
48267;BME280;34088;52.232;5.196;2023-12-20T08:21:17;101484.63;;;8.05;93.66
48267;BME280;34088;52.232;5.196;2023-12-20T08:23:44;101487.19;;;8.08;93.56
48267;BME280;34088;52.232;5.196;2023-12-20T08:26:10;101478.56;;;8.09;93.13
48267;BME280;34088;52.232;5.196;2023-12-20T08:28:36;101484.50;;;8.17;93.16
48267;BME280;34088;52.232;5.196;2023-12-20T08:31:02;101483.66;;;8.15;92.48
48267;BME280;34088;52.232;5.196;2023-12-20T08:33:27;101473.28;;;8.20;93.04
48267;BME280;34088;52.232;5.196;2023-12-20T08:35:52;101467.28;;;8.16;93.03
48267;BME280;34088;52.232;5.196;2023-12-20T08:38:18;101473.28;;;8.20;93.28
48267;BME280;34088;52.232;5.196;2023-12-20T08:40:43;101472.34;;;8.27;92.70
48267;BME280;34088;52.232;5.196;2023-12-20T08:43:09;101472.34;;;8.27;93.01
48267;BME280;34088;52.232;5.196;2023-12-20T08:45:34;101468.03;;;8.26;93.58
48267;BME280;34088;52.232;5.196;2023-12-20T08:47:59;101485.25;;;8.25;92.64
48267;BME280;34088;52.232;5.196;2023-12-20T08:50:25;101479.22;;;8.25;93.85
48267;BME280;34088;52.232;5.196;2023-12-20T08:52:50;101477.44;;;8.30;93.09
48267;BME280;34088;52.232;5.196;2023-12-20T08:55:15;101471.50;;;8.25;94.13
48267;BME280;34088;52.232;5.196;2023-12-20T08:57:43;101480.09;;;8.27;93.81
48267;BME280;34088;52.232;5.196;2023-12-20T09:00:08;101480.91;;;8.29;93.57
48267;BME280;34088;52.232;5.196;2023-12-20T09:02:34;101486.78;;;8.37;93.32
48267;BME280;34088;52.232;5.196;2023-12-20T09:05:01;101476.47;;;8.37;93.41
48267;BME280;34088;52.232;5.196;2023-12-20T09:07:27;101467.88;;;8.38;93.72
48267;BME280;34088;52.232;5.196;2023-12-20T09:09:55;101471.28;;;8.40;92.74
48267;BME280;34088;52.232;5.196;2023-12-20T09:12:20;101477.31;;;8.39;93.35
48267;BME280;34088;52.232;5.196;2023-12-20T09:14:49;101468.69;;;8.41;93.17
48267;BME280;34088;52.232;5.196;2023-12-20T09:17:16;101466.03;;;8.44;93.19
48267;BME280;34088;52.232;5.196;2023-12-20T09:19:41;101470.31;;;8.45;93.72
48267;BME280;34088;52.232;5.196;2023-12-20T09:22:07;101478.84;;;8.50;93.55
48267;BME280;34088;52.232;5.196;2023-12-20T09:24:32;101469.47;;;8.45;92.67
48267;BME280;34088;52.232;5.196;2023-12-20T09:26:58;101465.16;;;8.45;92.83
48267;BME280;34088;52.232;5.196;2023-12-20T09:29:23;101471.00;;;8.55;93.25
48267;BME280;34088;52.232;5.196;2023-12-20T09:31:48;101474.44;;;8.58;91.55
48267;BME280;34088;52.232;5.196;2023-12-20T09:34:15;101471.00;;;8.56;92.51
48267;BME280;34088;52.232;5.196;2023-12-20T09:36:42;101471.88;;;8.57;92.46
48267;BME280;34088;52.232;5.196;2023-12-20T09:39:13;101476.94;;;8.61;91.28
48267;BME280;34088;52.232;5.196;2023-12-20T09:41:42;101478.59;;;8.65;91.39
48267;BME280;34088;52.232;5.196;2023-12-20T09:44:08;101475.84;;;8.74;92.40
48267;BME280;34088;52.232;5.196;2023-12-20T09:46:37;101472.47;;;8.71;91.43
48267;BME280;34088;52.232;5.196;2023-12-20T09:49:05;101469.97;;;8.68;91.73
48267;BME280;34088;52.232;5.196;2023-12-20T09:51:31;101479.41;;;8.69;92.44
48267;BME280;34088;52.232;5.196;2023-12-20T09:53:57;101471.63;;;8.70;91.50
48267;BME280;34088;52.232;5.196;2023-12-20T09:56:24;101482.75;;;8.74;92.57
48267;BME280;34088;52.232;5.196;2023-12-20T09:58:50;101487.88;;;8.75;92.02
48267;BME280;34088;52.232;5.196;2023-12-20T10:01:15;101493.91;;;8.76;92.34
48267;BME280;34088;52.232;5.196;2023-12-20T10:03:41;101490.41;;;8.78;91.07
48267;BME280;34088;52.232;5.196;2023-12-20T10:06:06;101479.13;;;8.84;91.33
48267;BME280;34088;52.232;5.196;2023-12-20T10:08:32;101488.69;;;8.79;91.25
48267;BME280;34088;52.232;5.196;2023-12-20T10:10:58;101496.41;;;8.80;90.91
48267;BME280;34088;52.232;5.196;2023-12-20T10:13:27;101501.53;;;8.83;90.48
48267;BME280;34088;52.232;5.196;2023-12-20T10:15:55;101499.66;;;8.90;91.41
48267;BME280;34088;52.232;5.196;2023-12-20T10:18:21;101496.28;;;8.88;91.60
48267;BME280;34088;52.232;5.196;2023-12-20T10:20:46;101498.94;;;8.83;90.69
48267;BME280;34088;52.232;5.196;2023-12-20T10:23:12;101494.72;;;8.78;91.46
48267;BME280;34088;52.232;5.196;2023-12-20T10:25:39;101479.94;;;8.87;90.74
48267;BME280;34088;52.232;5.196;2023-12-20T10:30:36;101477.25;;;8.93;90.61
48267;BME280;34088;52.232;5.196;2023-12-20T10:33:02;101489.22;;;8.97;90.34
48267;BME280;34088;52.232;5.196;2023-12-20T10:35:27;101480.66;;;8.95;90.06
48267;BME280;34088;52.232;5.196;2023-12-20T10:37:55;101468.53;;;8.99;89.62
48267;BME280;34088;52.232;5.196;2023-12-20T10:40:21;101478.72;;;9.08;90.13
48267;BME280;34088;52.232;5.196;2023-12-20T10:42:46;101479.53;;;9.10;90.52
48267;BME280;34088;52.232;5.196;2023-12-20T10:45:12;101477.63;;;9.19;90.04
48267;BME280;34088;52.232;5.196;2023-12-20T10:47:37;101466.50;;;9.16;89.55
48267;BME280;34088;52.232;5.196;2023-12-20T10:50:05;101466.53;;;9.13;89.30
48267;BME280;34088;52.232;5.196;2023-12-20T10:52:32;101466.63;;;9.10;89.08
48267;BME280;34088;52.232;5.196;2023-12-20T10:54:57;101460.53;;;9.14;89.77
48267;BME280;34088;52.232;5.196;2023-12-20T10:57:24;101459.53;;;9.21;89.61
48267;BME280;34088;52.232;5.196;2023-12-20T10:59:53;101469.72;;;9.27;89.06
48267;BME280;34088;52.232;5.196;2023-12-20T11:02:19;101449.91;;;9.27;88.41
48267;BME280;34088;52.232;5.196;2023-12-20T11:07:55;101447.63;;;9.55;86.31
48267;BME280;34088;52.232;5.196;2023-12-20T11:13:40;101442.34;;;9.61;85.83
48267;BME280;34088;52.232;5.196;2023-12-20T11:16:09;101452.81;;;9.55;85.79
48267;BME280;34088;52.232;5.196;2023-12-20T11:18:35;101438.06;;;9.60;85.95
48267;BME280;34088;52.232;5.196;2023-12-20T11:21:01;101437.44;;;9.47;86.53
48267;BME280;34088;52.232;5.196;2023-12-20T11:23:29;101438.09;;;9.57;86.29
48267;BME280;34088;52.232;5.196;2023-12-20T11:25:57;101441.63;;;9.52;85.72
48267;BME280;34088;52.232;5.196;2023-12-20T11:28:26;101434.72;;;9.55;85.36
48267;BME280;34088;52.232;5.196;2023-12-20T11:30:56;101437.19;;;9.59;85.71
48267;BME280;34088;52.232;5.196;2023-12-20T11:33:23;101434.72;;;9.55;85.89
48267;BME280;34088;52.232;5.196;2023-12-20T11:35:48;101431.28;;;9.52;85.42
48267;BME280;34088;52.232;5.196;2023-12-20T11:38:14;101434.75;;;9.53;85.95
48267;BME280;34088;52.232;5.196;2023-12-20T11:40:39;101423.66;;;9.47;86.44
48267;BME280;34088;52.232;5.196;2023-12-20T11:43:06;101433.94;;;9.50;85.92
48267;BME280;34088;52.232;5.196;2023-12-20T11:45:31;101423.59;;;9.51;86.00
48267;BME280;34088;52.232;5.196;2023-12-20T11:47:57;101413.41;;;9.44;86.44
48267;BME280;34088;52.232;5.196;2023-12-20T11:50:23;101399.59;;;9.45;86.70
48267;BME280;34088;52.232;5.196;2023-12-20T11:52:50;101400.41;;;9.47;87.36
48267;BME280;34088;52.232;5.196;2023-12-20T11:55:16;101402.19;;;9.45;87.00
48267;BME280;34088;52.232;5.196;2023-12-20T11:57:43;101396.25;;;9.40;87.78
48267;BME280;34088;52.232;5.196;2023-12-20T12:00:08;101400.41;;;9.47;88.29
48267;BME280;34088;52.232;5.196;2023-12-20T12:02:34;101399.66;;;9.42;87.46
48267;BME280;34088;52.232;5.196;2023-12-20T12:05:00;101403.03;;;9.45;88.29
48267;BME280;34088;52.232;5.196;2023-12-20T12:07:25;101412.75;;;9.34;88.35
48267;BME280;34088;52.232;5.196;2023-12-20T12:09:50;101409.16;;;9.41;88.68
48267;BME280;34088;52.232;5.196;2023-12-20T12:12:16;101408.28;;;9.41;88.22
48267;BME280;34088;52.232;5.196;2023-12-20T12:14:44;101413.44;;;9.42;88.02
48267;BME280;34088;52.232;5.196;2023-12-20T12:17:13;101420.25;;;9.46;88.12
48267;BME280;34088;52.232;5.196;2023-12-20T12:19:39;101413.38;;;9.45;87.63
48267;BME280;34088;52.232;5.196;2023-12-20T12:24:36;101397.69;;;9.52;88.13
48267;BME280;34088;52.232;5.196;2023-12-20T12:27:02;101396.94;;;9.48;88.14
48267;BME280;34088;52.232;5.196;2023-12-20T12:29:28;101379.06;;;9.39;88.33
48267;BME280;34088;52.232;5.196;2023-12-20T12:31:54;101379.78;;;9.45;88.25
48267;BME280;34088;52.232;5.196;2023-12-20T12:34:20;101366.06;;;9.42;88.23
48267;BME280;34088;52.232;5.196;2023-12-20T12:36:45;101368.59;;;9.45;88.44
48267;BME280;34088;52.232;5.196;2023-12-20T12:39:14;101369.44;;;9.45;88.01
48267;BME280;34088;52.232;5.196;2023-12-20T12:41:42;101368.59;;;9.45;88.60
48267;BME280;34088;52.232;5.196;2023-12-20T12:44:07;101354.94;;;9.38;88.79
48267;BME280;34088;52.232;5.196;2023-12-20T12:46:32;101372.91;;;9.44;88.67
48267;BME280;34088;52.232;5.196;2023-12-20T12:48:58;101367.03;;;9.38;88.31
48267;BME280;34088;52.232;5.196;2023-12-20T12:51:23;101370.38;;;9.41;88.91
48267;BME280;34088;52.232;5.196;2023-12-20T12:53:48;101368.69;;;9.40;88.82
48267;BME280;34088;52.232;5.196;2023-12-20T12:56:15;101366.13;;;9.39;88.73
48267;BME280;34088;52.232;5.196;2023-12-20T12:58:41;101358.50;;;9.33;88.82
48267;BME280;34088;52.232;5.196;2023-12-20T13:01:06;101349.78;;;9.38;88.68
48267;BME280;34088;52.232;5.196;2023-12-20T13:03:32;101348.09;;;9.36;87.95
48267;BME280;34088;52.232;5.196;2023-12-20T13:05:57;101338.66;;;9.35;88.78
48267;BME280;34088;52.232;5.196;2023-12-20T13:08:22;101335.25;;;9.33;88.58
48267;BME280;34088;52.232;5.196;2023-12-20T13:10:48;101319.00;;;9.28;88.64
48267;BME280;34088;52.232;5.196;2023-12-20T13:13:14;101331.91;;;9.28;89.03